sensor_id;sensor_type;location;lat;lon;timestamp;pressure;altitude;pressure_sealevel;temperature;humidity
51603;BME280;37954;51.980;5.850;2023-06-26T00:01:26;100888.81;;;24.60;59.78
51603;BME280;37954;51.980;5.850;2023-06-26T00:05:41;100887.34;;;24.54;60.06
51603;BME280;37954;51.980;5.850;2023-06-26T00:09:54;100880.03;;;24.50;60.14
51603;BME280;37954;51.980;5.850;2023-06-26T00:14:05;100887.25;;;24.46;60.57
51603;BME280;37954;51.980;5.850;2023-06-26T00:18:18;100893.06;;;24.44;60.70
51603;BME280;37954;51.980;5.850;2023-06-26T00:22:29;100854.19;;;24.28;60.95
51603;BME280;37954;51.980;5.850;2023-06-26T00:26:41;100864.06;;;24.29;60.82
51603;BME280;37954;51.980;5.850;2023-06-26T00:30:53;100850.06;;;24.17;61.23
51603;BME280;37954;51.980;5.850;2023-06-26T00:35:05;100861.34;;;24.16;61.48
51603;BME280;37954;51.980;5.850;2023-06-26T00:39:17;100850.28;;;24.07;61.73
51603;BME280;37954;51.980;5.850;2023-06-26T00:43:29;100848.78;;;24.01;61.79
51603;BME280;37954;51.980;5.850;2023-06-26T00:47:41;100861.50;;;23.97;62.01
51603;BME280;37954;51.980;5.850;2023-06-26T00:51:53;100871.16;;;23.94;62.39
51603;BME280;37954;51.980;5.850;2023-06-26T00:56:05;100867.25;;;23.87;62.71
51603;BME280;37954;51.980;5.850;2023-06-26T01:00:17;100865.91;;;23.84;62.42
51603;BME280;37954;51.980;5.850;2023-06-26T01:04:29;100846.22;;;23.82;62.14
51603;BME280;37954;51.980;5.850;2023-06-26T01:08:44;100855.31;;;23.91;61.81
51603;BME280;37954;51.980;5.850;2023-06-26T01:12:57;100856.63;;;23.94;61.63
51603;BME280;37954;51.980;5.850;2023-06-26T01:17:10;100852.41;;;23.88;61.68
51603;BME280;37954;51.980;5.850;2023-06-26T01:21:29;100846.72;;;23.84;61.93
51603;BME280;37954;51.980;5.850;2023-06-26T01:30:08;100846.13;;;23.74;62.26
51603;BME280;37954;51.980;5.850;2023-06-26T01:34:20;100842.78;;;23.63;62.56
51603;BME280;37954;51.980;5.850;2023-06-26T01:38:34;100868.81;;;23.66;62.80
51603;BME280;37954;51.980;5.850;2023-06-26T01:42:49;100861.69;;;23.51;63.44
51603;BME280;37954;51.980;5.850;2023-06-26T01:47:04;100865.66;;;23.45;63.70
51603;BME280;37954;51.980;5.850;2023-06-26T01:51:17;100844.63;;;23.26;64.34
51603;BME280;37954;51.980;5.850;2023-06-26T01:55:46;100868.78;;;23.38;64.86
51603;BME280;37954;51.980;5.850;2023-06-26T02:00:01;100873.78;;;23.36;64.66
51603;BME280;37954;51.980;5.850;2023-06-26T02:04:23;100878.03;;;23.29;64.62
51603;BME280;37954;51.980;5.850;2023-06-26T02:08:36;100885.88;;;23.35;64.00
51603;BME280;37954;51.980;5.850;2023-06-26T02:12:48;100901.31;;;23.31;62.88
51603;BME280;37954;51.980;5.850;2023-06-26T02:16:59;100896.63;;;23.32;62.11
51603;BME280;37954;51.980;5.850;2023-06-26T02:21:13;100895.09;;;23.25;61.65
51603;BME280;37954;51.980;5.850;2023-06-26T02:25:24;100894.41;;;23.20;61.41
51603;BME280;37954;51.980;5.850;2023-06-26T02:29:36;100892.88;;;23.14;61.24
51603;BME280;37954;51.980;5.850;2023-06-26T02:33:51;100899.47;;;23.13;61.13
51603;BME280;37954;51.980;5.850;2023-06-26T02:38:03;100895.59;;;23.00;61.22
51603;BME280;37954;51.980;5.850;2023-06-26T02:42:16;100900.56;;;22.98;61.32
51603;BME280;37954;51.980;5.850;2023-06-26T02:46:28;100906.84;;;22.85;61.85
51603;BME280;37954;51.980;5.850;2023-06-26T02:50:41;100919.22;;;22.82;61.98
51603;BME280;37954;51.980;5.850;2023-06-26T02:54:57;100921.47;;;22.75;62.34
51603;BME280;37954;51.980;5.850;2023-06-26T02:59:09;100929.78;;;22.70;62.77
51603;BME280;37954;51.980;5.850;2023-06-26T03:03:21;100934.09;;;22.57;63.45
51603;BME280;37954;51.980;5.850;2023-06-26T03:07:33;100942.38;;;22.52;63.68
51603;BME280;37954;51.980;5.850;2023-06-26T03:11:45;100938.13;;;22.46;63.98
51603;BME280;37954;51.980;5.850;2023-06-26T03:15:57;100933.41;;;22.33;64.85
51603;BME280;37954;51.980;5.850;2023-06-26T03:20:08;100932.44;;;22.24;65.26
51603;BME280;37954;51.980;5.850;2023-06-26T03:24:33;100955.66;;;22.27;65.62
51603;BME280;37954;51.980;5.850;2023-06-26T03:28:45;100946.72;;;22.21;66.04
51603;BME280;37954;51.980;5.850;2023-06-26T03:32:57;100940.06;;;22.08;66.25
51603;BME280;37954;51.980;5.850;2023-06-26T03:37:09;100950.72;;;22.10;66.60
51603;BME280;37954;51.980;5.850;2023-06-26T03:41:20;100934.41;;;22.00;66.95
51603;BME280;37954;51.980;5.850;2023-06-26T03:45:32;100927.25;;;22.04;67.14
51603;BME280;37954;51.980;5.850;2023-06-26T03:49:44;100931.44;;;21.96;67.48
51603;BME280;37954;51.980;5.850;2023-06-26T03:53:56;100935.88;;;21.92;68.06
51603;BME280;37954;51.980;5.850;2023-06-26T03:58:08;100950.59;;;21.96;68.29
51603;BME280;37954;51.980;5.850;2023-06-26T04:02:20;100943.19;;;21.97;68.40
51603;BME280;37954;51.980;5.850;2023-06-26T04:06:31;100940.81;;;21.90;68.97
51603;BME280;37954;51.980;5.850;2023-06-26T04:10:44;100948.22;;;21.89;68.67
51603;BME280;37954;51.980;5.850;2023-06-26T04:14:57;100962.66;;;21.95;69.02
51603;BME280;37954;51.980;5.850;2023-06-26T04:19:08;100960.50;;;21.92;69.25
51603;BME280;37954;51.980;5.850;2023-06-26T04:23:21;100971.56;;;22.06;69.53
51603;BME280;37954;51.980;5.850;2023-06-26T04:27:33;100977.50;;;22.13;69.22
51603;BME280;37954;51.980;5.850;2023-06-26T04:31:48;101005.88;;;22.17;69.27
51603;BME280;37954;51.980;5.850;2023-06-26T04:35:59;100994.91;;;22.17;69.31
51603;BME280;37954;51.980;5.850;2023-06-26T04:40:15;100983.84;;;22.08;69.69
51603;BME280;37954;51.980;5.850;2023-06-26T04:44:26;101001.44;;;22.21;69.89
51603;BME280;37954;51.980;5.850;2023-06-26T04:48:38;100985.41;;;22.33;69.65
51603;BME280;37954;51.980;5.850;2023-06-26T04:52:50;101001.91;;;22.47;68.89
51603;BME280;37954;51.980;5.850;2023-06-26T04:57:01;100997.19;;;22.34;68.93
51603;BME280;37954;51.980;5.850;2023-06-26T05:01:13;100989.56;;;22.31;68.83
51603;BME280;37954;51.980;5.850;2023-06-26T05:05:27;101005.88;;;23.38;67.71
51603;BME280;37954;51.980;5.850;2023-06-26T05:09:39;101019.88;;;24.60;64.26
51603;BME280;37954;51.980;5.850;2023-06-26T05:13:51;101018.81;;;25.37;60.70
51603;BME280;37954;51.980;5.850;2023-06-26T05:18:03;101026.63;;;25.74;58.84
51603;BME280;37954;51.980;5.850;2023-06-26T05:22:16;101026.06;;;26.03;57.60
51603;BME280;37954;51.980;5.850;2023-06-26T05:26:28;101031.88;;;26.58;56.03
51603;BME280;37954;51.980;5.850;2023-06-26T05:30:40;101034.63;;;27.10;54.41
51603;BME280;37954;51.980;5.850;2023-06-26T05:34:53;101052.34;;;27.56;52.72
51603;BME280;37954;51.980;5.850;2023-06-26T05:39:09;101053.25;;;26.70;52.84
51603;BME280;37954;51.980;5.850;2023-06-26T05:43:21;101050.03;;;26.02;53.94
51603;BME280;37954;51.980;5.850;2023-06-26T05:47:39;101069.66;;;26.49;53.18
51603;BME280;37954;51.980;5.850;2023-06-26T05:51:51;101077.22;;;27.47;51.54
51603;BME280;37954;51.980;5.850;2023-06-26T05:56:03;101078.78;;;28.12;49.36
51603;BME280;37954;51.980;5.850;2023-06-26T06:00:15;101104.72;;;28.79;47.37
51603;BME280;37954;51.980;5.850;2023-06-26T06:04:26;101095.63;;;28.99;45.78
51603;BME280;37954;51.980;5.850;2023-06-26T06:08:38;101091.56;;;29.17;44.60
51603;BME280;37954;51.980;5.850;2023-06-26T06:12:50;101104.06;;;29.56;42.70
51603;BME280;37954;51.980;5.850;2023-06-26T06:17:02;101106.69;;;29.53;42.17
51603;BME280;37954;51.980;5.850;2023-06-26T06:21:13;101123.78;;;30.24;41.62
51603;BME280;37954;51.980;5.850;2023-06-26T06:25:25;101122.75;;;30.41;40.04
51603;BME280;37954;51.980;5.850;2023-06-26T06:29:37;101139.09;;;30.95;38.93
51603;BME280;37954;51.980;5.850;2023-06-26T06:33:49;101136.84;;;31.68;38.02
51603;BME280;37954;51.980;5.850;2023-06-26T06:38:00;101152.03;;;32.34;36.42
51603;BME280;37954;51.980;5.850;2023-06-26T06:42:12;101152.56;;;31.64;35.52
51603;BME280;37954;51.980;5.850;2023-06-26T06:46:24;101153.50;;;31.00;36.32
51603;BME280;37954;51.980;5.850;2023-06-26T06:50:38;101140.53;;;30.16;37.52
51603;BME280;37954;51.980;5.850;2023-06-26T06:54:55;101161.88;;;30.88;37.66
51603;BME280;37954;51.980;5.850;2023-06-26T06:59:07;101170.56;;;31.55;36.73
51603;BME280;37954;51.980;5.850;2023-06-26T07:03:19;101177.75;;;31.83;35.96
51603;BME280;37954;51.980;5.850;2023-06-26T07:07:34;101180.56;;;32.31;35.22
51603;BME280;37954;51.980;5.850;2023-06-26T07:11:46;101183.69;;;32.13;34.86
51603;BME280;37954;51.980;5.850;2023-06-26T07:15:58;101189.69;;;32.47;34.73
51603;BME280;37954;51.980;5.850;2023-06-26T07:20:10;101191.34;;;31.89;35.15
51603;BME280;37954;51.980;5.850;2023-06-26T07:24:26;101197.25;;;31.71;35.81
51603;BME280;37954;51.980;5.850;2023-06-26T07:28:38;101199.13;;;32.27;35.03
51603;BME280;37954;51.980;5.850;2023-06-26T07:32:50;101218.56;;;32.58;34.64
51603;BME280;37954;51.980;5.850;2023-06-26T07:37:02;101214.84;;;33.01;34.15
51603;BME280;37954;51.980;5.850;2023-06-26T07:41:14;101234.91;;;33.45;33.14
51603;BME280;37954;51.980;5.850;2023-06-26T07:45:25;101222.38;;;32.50;33.66
51603;BME280;37954;51.980;5.850;2023-06-26T07:49:39;101210.34;;;32.97;33.86
51603;BME280;37954;51.980;5.850;2023-06-26T07:53:50;101231.81;;;33.50;33.61
51603;BME280;37954;51.980;5.850;2023-06-26T07:58:02;101235.63;;;32.57;33.16
51603;BME280;37954;51.980;5.850;2023-06-26T08:02:14;101246.63;;;31.50;35.41
51603;BME280;37954;51.980;5.850;2023-06-26T08:06:26;101245.19;;;31.28;35.97
51603;BME280;37954;51.980;5.850;2023-06-26T08:10:37;101245.53;;;31.95;35.67
51603;BME280;37954;51.980;5.850;2023-06-26T08:14:49;101248.38;;;32.73;34.50
51603;BME280;37954;51.980;5.850;2023-06-26T08:19:01;101250.13;;;32.97;34.13
51603;BME280;37954;51.980;5.850;2023-06-26T08:23:13;101240.09;;;33.28;33.83
51603;BME280;37954;51.980;5.850;2023-06-26T08:27:25;101235.63;;;32.57;34.10
51603;BME280;37954;51.980;5.850;2023-06-26T08:31:38;101250.78;;;31.16;35.79
51603;BME280;37954;51.980;5.850;2023-06-26T08:35:50;101248.78;;;30.43;37.45
51603;BME280;37954;51.980;5.850;2023-06-26T08:40:02;101261.47;;;31.42;36.84
51603;BME280;37954;51.980;5.850;2023-06-26T08:44:14;101260.81;;;32.16;36.19
51603;BME280;37954;51.980;5.850;2023-06-26T08:48:25;101283.72;;;33.04;34.38
51603;BME280;37954;51.980;5.850;2023-06-26T08:52:46;101280.97;;;33.59;32.43
51603;BME280;37954;51.980;5.850;2023-06-26T08:57:00;101278.91;;;32.85;32.47
51603;BME280;37954;51.980;5.850;2023-06-26T09:01:12;101292.47;;;33.57;32.93
51603;BME280;37954;51.980;5.850;2023-06-26T09:05:25;101284.47;;;32.85;32.32
51603;BME280;37954;51.980;5.850;2023-06-26T09:09:38;101286.66;;;31.89;33.35
51603;BME280;37954;51.980;5.850;2023-06-26T09:13:51;101296.06;;;32.88;32.43
51603;BME280;37954;51.980;5.850;2023-06-26T09:18:04;101309.50;;;33.71;30.79
51603;BME280;37954;51.980;5.850;2023-06-26T09:22:16;101309.09;;;33.18;30.52
51603;BME280;37954;51.980;5.850;2023-06-26T09:26:28;101333.41;;;33.53;30.49
51603;BME280;37954;51.980;5.850;2023-06-26T09:30:40;101335.34;;;34.49;28.68
51603;BME280;37954;51.980;5.850;2023-06-26T09:34:53;101330.91;;;34.90;27.39
51603;BME280;37954;51.980;5.850;2023-06-26T09:39:08;101335.59;;;34.40;26.88
51603;BME280;37954;51.980;5.850;2023-06-26T09:43:23;101339.56;;;33.11;27.98
51603;BME280;37954;51.980;5.850;2023-06-26T09:47:35;101328.41;;;31.77;29.76
51603;BME280;37954;51.980;5.850;2023-06-26T09:51:49;101339.31;;;31.58;31.48
51603;BME280;37954;51.980;5.850;2023-06-26T09:56:07;101342.69;;;32.31;30.85
51603;BME280;37954;51.980;5.850;2023-06-26T10:00:26;101354.97;;;32.30;30.84
51603;BME280;37954;51.980;5.850;2023-06-26T10:04:38;101355.50;;;30.58;31.47
51603;BME280;37954;51.980;5.850;2023-06-26T10:08:51;101369.38;;;30.25;33.42
51603;BME280;37954;51.980;5.850;2023-06-26T10:13:16;101355.81;;;31.26;32.34
51603;BME280;37954;51.980;5.850;2023-06-26T10:17:34;101366.09;;;32.30;30.67
51603;BME280;37954;51.980;5.850;2023-06-26T10:21:46;101382.09;;;32.49;30.58
51603;BME280;37954;51.980;5.850;2023-06-26T10:26:00;101373.50;;;31.98;29.73
51603;BME280;37954;51.980;5.850;2023-06-26T10:30:18;101377.03;;;31.83;30.33
51603;BME280;37954;51.980;5.850;2023-06-26T10:34:31;101363.75;;;31.64;30.56
51603;BME280;37954;51.980;5.850;2023-06-26T10:39:03;101383.97;;;32.45;29.63
51603;BME280;37954;51.980;5.850;2023-06-26T10:43:16;101372.50;;;32.62;27.81
51603;BME280;37954;51.980;5.850;2023-06-26T10:47:30;101376.34;;;32.42;27.07
51603;BME280;37954;51.980;5.850;2023-06-26T10:51:48;101374.94;;;32.48;27.09
51603;BME280;37954;51.980;5.850;2023-06-26T10:56:03;101393.03;;;32.85;27.71
51603;BME280;37954;51.980;5.850;2023-06-26T11:00:17;101376.78;;;32.88;27.23
51603;BME280;37954;51.980;5.850;2023-06-26T11:04:44;101395.69;;;32.66;26.99
51603;BME280;37954;51.980;5.850;2023-06-26T11:13:18;101396.16;;;30.99;28.33
51603;BME280;37954;51.980;5.850;2023-06-26T11:17:31;101392.84;;;31.30;27.79
51603;BME280;37954;51.980;5.850;2023-06-26T11:21:43;101408.44;;;31.59;27.94
51603;BME280;37954;51.980;5.850;2023-06-26T11:25:54;101404.28;;;31.41;28.50
51603;BME280;37954;51.980;5.850;2023-06-26T11:30:08;101397.00;;;31.24;28.32
51603;BME280;37954;51.980;5.850;2023-06-26T11:34:20;101410.19;;;31.15;28.29
51603;BME280;37954;51.980;5.850;2023-06-26T11:38:37;101434.72;;;31.25;28.45
51603;BME280;37954;51.980;5.850;2023-06-26T11:42:49;101424.00;;;30.91;28.72
51603;BME280;37954;51.980;5.850;2023-06-26T11:47:01;101437.59;;;31.53;28.02
51603;BME280;37954;51.980;5.850;2023-06-26T11:51:13;101429.81;;;30.98;28.03
51603;BME280;37954;51.980;5.850;2023-06-26T11:55:41;101450.09;;;31.35;28.63
51603;BME280;37954;51.980;5.850;2023-06-26T11:59:56;101459.00;;;31.89;28.60
51603;BME280;37954;51.980;5.850;2023-06-26T12:04:10;101452.28;;;32.02;28.25
51603;BME280;37954;51.980;5.850;2023-06-26T12:08:23;101462.59;;;31.53;27.62
51603;BME280;37954;51.980;5.850;2023-06-26T12:12:35;101459.47;;;31.42;27.98
51603;BME280;37954;51.980;5.850;2023-06-26T12:16:47;101477.88;;;30.77;27.74
51603;BME280;37954;51.980;5.850;2023-06-26T12:20:59;101481.88;;;30.47;29.36
51603;BME280;37954;51.980;5.850;2023-06-26T12:25:11;101476.34;;;30.05;29.26
51603;BME280;37954;51.980;5.850;2023-06-26T12:29:32;101482.06;;;29.41;29.86
51603;BME280;37954;51.980;5.850;2023-06-26T12:33:44;101489.38;;;29.29;30.02
51603;BME280;37954;51.980;5.850;2023-06-26T12:37:56;101470.00;;;29.37;30.03
51603;BME280;37954;51.980;5.850;2023-06-26T12:42:08;101478.66;;;29.65;30.24
51603;BME280;37954;51.980;5.850;2023-06-26T12:46:20;101451.50;;;29.59;29.90
51603;BME280;37954;51.980;5.850;2023-06-26T12:50:37;101472.28;;;29.73;30.19
51603;BME280;37954;51.980;5.850;2023-06-26T12:54:54;101475.88;;;29.74;30.14
51603;BME280;37954;51.980;5.850;2023-06-26T12:59:07;101478.97;;;29.43;30.12
51603;BME280;37954;51.980;5.850;2023-06-26T13:03:19;101468.13;;;29.59;30.85
51603;BME280;37954;51.980;5.850;2023-06-26T13:07:34;101474.06;;;29.78;30.31
51603;BME280;37954;51.980;5.850;2023-06-26T13:11:47;101493.00;;;29.67;30.06
51603;BME280;37954;51.980;5.850;2023-06-26T13:15:59;101483.44;;;29.09;29.97
51603;BME280;37954;51.980;5.850;2023-06-26T13:20:11;101489.16;;;28.96;30.33
51603;BME280;37954;51.980;5.850;2023-06-26T13:24:23;101498.00;;;28.89;30.10
51603;BME280;37954;51.980;5.850;2023-06-26T13:28:35;101491.81;;;28.84;30.47
51603;BME280;37954;51.980;5.850;2023-06-26T13:32:48;101496.31;;;28.97;30.81
51603;BME280;37954;51.980;5.850;2023-06-26T13:36:59;101487.09;;;28.41;31.11
51603;BME280;37954;51.980;5.850;2023-06-26T13:41:12;101499.44;;;28.44;31.05
51603;BME280;37954;51.980;5.850;2023-06-26T13:45:25;101512.63;;;28.47;31.02
51603;BME280;37954;51.980;5.850;2023-06-26T13:49:42;101479.44;;;28.47;31.00
51603;BME280;37954;51.980;5.850;2023-06-26T13:53:54;101483.69;;;28.35;31.28
51603;BME280;37954;51.980;5.850;2023-06-26T13:58:15;101499.44;;;28.44;31.17
51603;BME280;37954;51.980;5.850;2023-06-26T14:02:27;101516.19;;;28.30;31.30
51603;BME280;37954;51.980;5.850;2023-06-26T14:06:41;101488.66;;;28.07;31.68
51603;BME280;37954;51.980;5.850;2023-06-26T14:10:54;101503.78;;;28.01;31.00
51603;BME280;37954;51.980;5.850;2023-06-26T14:15:09;101500.69;;;28.03;30.48
51603;BME280;37954;51.980;5.850;2023-06-26T14:19:25;101499.94;;;27.71;30.52
51603;BME280;37954;51.980;5.850;2023-06-26T14:23:37;101505.69;;;27.44;30.92
51603;BME280;37954;51.980;5.850;2023-06-26T14:27:49;101526.13;;;27.43;30.82
51603;BME280;37954;51.980;5.850;2023-06-26T14:32:02;101553.81;;;27.29;30.63
51603;BME280;37954;51.980;5.850;2023-06-26T14:36:14;101556.59;;;27.07;31.18
51603;BME280;37954;51.980;5.850;2023-06-26T14:40:25;101548.25;;;26.76;31.19
51603;BME280;37954;51.980;5.850;2023-06-26T14:44:38;101551.31;;;26.75;32.15
51603;BME280;37954;51.980;5.850;2023-06-26T14:48:50;101551.72;;;26.68;32.17
51603;BME280;37954;51.980;5.850;2023-06-26T14:53:03;101555.84;;;26.57;32.13
51603;BME280;37954;51.980;5.850;2023-06-26T14:57:14;101556.72;;;26.44;32.87
51603;BME280;37954;51.980;5.850;2023-06-26T15:01:26;101561.81;;;26.37;33.23
51603;BME280;37954;51.980;5.850;2023-06-26T15:05:38;101569.75;;;26.52;33.16
51603;BME280;37954;51.980;5.850;2023-06-26T15:09:50;101558.97;;;26.42;33.10
51603;BME280;37954;51.980;5.850;2023-06-26T15:14:02;101569.59;;;26.34;33.22
51603;BME280;37954;51.980;5.850;2023-06-26T15:18:17;101572.19;;;26.53;33.41
51603;BME280;37954;51.980;5.850;2023-06-26T15:22:31;101561.38;;;26.57;33.71
51603;BME280;37954;51.980;5.850;2023-06-26T15:26:43;101559.03;;;26.50;33.46
51603;BME280;37954;51.980;5.850;2023-06-26T15:30:55;101557.66;;;26.12;33.76
51603;BME280;37954;51.980;5.850;2023-06-26T15:35:07;101556.13;;;26.06;33.94
51603;BME280;37954;51.980;5.850;2023-06-26T15:39:19;101554.91;;;25.98;33.91
51603;BME280;37954;51.980;5.850;2023-06-26T15:43:32;101562.97;;;25.81;34.45
51603;BME280;37954;51.980;5.850;2023-06-26T15:47:45;101545.59;;;25.53;34.59
51603;BME280;37954;51.980;5.850;2023-06-26T15:51:56;101561.69;;;25.46;34.95
51603;BME280;37954;51.980;5.850;2023-06-26T15:56:10;101549.53;;;25.33;35.10
51603;BME280;37954;51.980;5.850;2023-06-26T16:00:22;101556.69;;;25.48;35.16
51603;BME280;37954;51.980;5.850;2023-06-26T16:04:33;101555.88;;;25.47;35.29
51603;BME280;37954;51.980;5.850;2023-06-26T16:08:46;101561.81;;;25.54;35.39
51603;BME280;37954;51.980;5.850;2023-06-26T16:13:00;101562.00;;;25.44;35.59
51603;BME280;37954;51.980;5.850;2023-06-26T16:17:12;101542.38;;;25.18;35.88
51603;BME280;37954;51.980;5.850;2023-06-26T16:21:25;101548.00;;;24.94;36.23
51603;BME280;37954;51.980;5.850;2023-06-26T16:25:37;101557.84;;;25.14;36.50
51603;BME280;37954;51.980;5.850;2023-06-26T16:29:49;101540.00;;;25.12;35.82
51603;BME280;37954;51.980;5.850;2023-06-26T16:34:01;101538.25;;;25.02;35.58
51603;BME280;37954;51.980;5.850;2023-06-26T16:38:13;101548.50;;;24.78;35.85
51603;BME280;37954;51.980;5.850;2023-06-26T16:42:25;101548.75;;;24.62;35.91
51603;BME280;37954;51.980;5.850;2023-06-26T16:46:36;101564.88;;;24.69;36.59
51603;BME280;37954;51.980;5.850;2023-06-26T16:50:48;101554.25;;;24.62;36.40
51603;BME280;37954;51.980;5.850;2023-06-26T16:55:02;101553.66;;;24.66;36.12
51603;BME280;37954;51.980;5.850;2023-06-26T16:59:29;101570.13;;;24.66;36.77
51603;BME280;37954;51.980;5.850;2023-06-26T17:03:55;101563.16;;;24.54;37.24
51603;BME280;37954;51.980;5.850;2023-06-26T17:08:29;101569.78;;;24.53;37.52
51603;BME280;37954;51.980;5.850;2023-06-26T17:12:51;101567.63;;;24.50;37.55
51603;BME280;37954;51.980;5.850;2023-06-26T17:17:11;101570.19;;;24.42;37.52
51603;BME280;37954;51.980;5.850;2023-06-26T17:21:39;101572.84;;;24.28;38.05
51603;BME280;37954;51.980;5.850;2023-06-26T17:36:05;101589.97;;;23.96;38.44
51603;BME280;37954;51.980;5.850;2023-06-26T17:40:19;101591.66;;;23.68;39.11
51603;BME280;37954;51.980;5.850;2023-06-26T17:44:41;101586.88;;;23.50;39.46
51603;BME280;37954;51.980;5.850;2023-06-26T17:49:07;101598.00;;;23.35;39.65
51603;BME280;37954;51.980;5.850;2023-06-26T17:53:28;101609.03;;;23.24;39.88
51603;BME280;37954;51.980;5.850;2023-06-26T17:57:40;101609.44;;;23.08;39.88
51603;BME280;37954;51.980;5.850;2023-06-26T18:01:52;101609.16;;;23.09;40.02
51603;BME280;37954;51.980;5.850;2023-06-26T18:06:06;101611.06;;;23.14;40.08
51603;BME280;37954;51.980;5.850;2023-06-26T18:10:18;101608.84;;;23.16;40.34
51603;BME280;37954;51.980;5.850;2023-06-26T18:14:30;101610.19;;;23.18;40.40
51603;BME280;37954;51.980;5.850;2023-06-26T18:18:41;101615.16;;;23.16;40.55
51603;BME280;37954;51.980;5.850;2023-06-26T18:22:53;101620.88;;;23.20;40.74
51603;BME280;37954;51.980;5.850;2023-06-26T18:27:06;101610.22;;;23.13;40.75
51603;BME280;37954;51.980;5.850;2023-06-26T18:31:19;101633.69;;;23.30;40.48
51603;BME280;37954;51.980;5.850;2023-06-26T18:35:32;101630.00;;;23.05;40.15
51603;BME280;37954;51.980;5.850;2023-06-26T18:39:43;101639.44;;;22.89;40.54
51603;BME280;37954;51.980;5.850;2023-06-26T18:43:55;101641.97;;;22.85;40.80
51603;BME280;37954;51.980;5.850;2023-06-26T18:48:07;101637.91;;;22.68;41.03
51603;BME280;37954;51.980;5.850;2023-06-26T18:52:19;101641.84;;;22.46;41.24
51603;BME280;37954;51.980;5.850;2023-06-26T18:56:32;101630.97;;;22.26;42.12
51603;BME280;37954;51.980;5.850;2023-06-26T19:00:44;101635.91;;;22.19;42.33
51603;BME280;37954;51.980;5.850;2023-06-26T19:04:56;101636.22;;;22.07;42.77
51603;BME280;37954;51.980;5.850;2023-06-26T19:09:08;101631.31;;;21.94;43.39
51603;BME280;37954;51.980;5.850;2023-06-26T19:13:20;101637.06;;;21.87;43.28
51603;BME280;37954;51.980;5.850;2023-06-26T19:17:32;101653.22;;;21.84;43.94
51603;BME280;37954;51.980;5.850;2023-06-26T19:21:48;101644.22;;;21.68;44.35
51603;BME280;37954;51.980;5.850;2023-06-26T19:26:03;101640.94;;;21.56;44.64
51603;BME280;37954;51.980;5.850;2023-06-26T19:30:15;101655.97;;;21.48;45.27
51603;BME280;37954;51.980;5.850;2023-06-26T19:34:27;101635.47;;;21.36;45.23
51603;BME280;37954;51.980;5.850;2023-06-26T19:38:39;101663.66;;;21.46;45.52
51603;BME280;37954;51.980;5.850;2023-06-26T19:42:51;101665.00;;;21.34;46.27
51603;BME280;37954;51.980;5.850;2023-06-26T19:47:04;101668.50;;;21.14;46.36
51603;BME280;37954;51.980;5.850;2023-06-26T19:51:16;101676.69;;;21.14;46.71
51603;BME280;37954;51.980;5.850;2023-06-26T19:55:28;101673.13;;;21.03;46.97
51603;BME280;37954;51.980;5.850;2023-06-26T19:59:40;101677.50;;;20.99;47.21
51603;BME280;37954;51.980;5.850;2023-06-26T20:03:51;101676.94;;;20.97;47.70
51603;BME280;37954;51.980;5.850;2023-06-26T20:08:03;101683.47;;;20.86;48.02
51603;BME280;37954;51.980;5.850;2023-06-26T20:12:15;101688.91;;;20.81;48.20
51603;BME280;37954;51.980;5.850;2023-06-26T20:16:27;101688.91;;;20.76;48.30
51603;BME280;37954;51.980;5.850;2023-06-26T20:20:40;101688.34;;;20.69;48.49
51603;BME280;37954;51.980;5.850;2023-06-26T20:24:51;101697.59;;;20.63;48.72
51603;BME280;37954;51.980;5.850;2023-06-26T20:29:03;101706.31;;;20.55;49.37
51603;BME280;37954;51.980;5.850;2023-06-26T20:33:16;101696.41;;;20.38;49.87
51603;BME280;37954;51.980;5.850;2023-06-26T20:37:27;101691.41;;;20.30;49.91
51603;BME280;37954;51.980;5.850;2023-06-26T20:41:39;101697.38;;;20.22;50.55
51603;BME280;37954;51.980;5.850;2023-06-26T20:45:51;101702.28;;;20.20;50.57
51603;BME280;37954;51.980;5.850;2023-06-26T20:50:04;101698.16;;;20.17;50.60
51603;BME280;37954;51.980;5.850;2023-06-26T20:54:16;101703.84;;;20.11;51.22
51603;BME280;37954;51.980;5.850;2023-06-26T20:58:28;101702.19;;;20.05;51.40
51603;BME280;37954;51.980;5.850;2023-06-26T21:02:39;101699.34;;;19.95;51.82
51603;BME280;37954;51.980;5.850;2023-06-26T21:06:51;101699.88;;;19.92;51.95
51603;BME280;37954;51.980;5.850;2023-06-26T21:11:03;101704.50;;;19.86;52.16
51603;BME280;37954;51.980;5.850;2023-06-26T21:15:15;101716.22;;;19.87;52.70
51603;BME280;37954;51.980;5.850;2023-06-26T21:19:27;101700.91;;;19.80;53.04
51603;BME280;37954;51.980;5.850;2023-06-26T21:23:38;101710.97;;;19.80;53.13
51603;BME280;37954;51.980;5.850;2023-06-26T21:27:50;101705.22;;;19.76;53.23
51603;BME280;37954;51.980;5.850;2023-06-26T21:32:02;101693.47;;;19.71;53.53
51603;BME280;37954;51.980;5.850;2023-06-26T21:36:14;101687.41;;;19.64;53.57
51603;BME280;37954;51.980;5.850;2023-06-26T21:40:26;101698.88;;;19.66;54.21
51603;BME280;37954;51.980;5.850;2023-06-26T21:44:37;101698.81;;;19.61;54.41
51603;BME280;37954;51.980;5.850;2023-06-26T21:48:49;101701.03;;;19.64;54.52
51603;BME280;37954;51.980;5.850;2023-06-26T21:53:01;101701.59;;;19.66;54.83
51603;BME280;37954;51.980;5.850;2023-06-26T21:57:13;101709.72;;;19.61;54.97
51603;BME280;37954;51.980;5.850;2023-06-26T22:01:25;101709.72;;;19.56;55.25
51603;BME280;37954;51.980;5.850;2023-06-26T22:05:38;101713.78;;;19.58;55.35
51603;BME280;37954;51.980;5.850;2023-06-26T22:09:50;101711.03;;;19.53;55.87
51603;BME280;37954;51.980;5.850;2023-06-26T22:14:02;101709.88;;;19.49;55.98
51603;BME280;37954;51.980;5.850;2023-06-26T22:18:14;101708.84;;;19.50;56.41
51603;BME280;37954;51.980;5.850;2023-06-26T22:22:26;101700.25;;;19.41;56.67